Time;durP1;ratioP1;P1;durP2;ratioP2;P2;SDS_P1;SDS_P2;PMS_P1;PMS_P2;Temp;Humidity;BMP_temperature;BMP_pressure;BME280_temperature;BME280_humidity;BME280_pressure;Samples;Min_cycle;Max_cycle;Signal;HPM_P1;HPM_P2
2021/04/27 00:02:17;;;;;;;18.67;8.60;;;;;;;12.36;33.17;100490.75;5052017;28;20051;-74
2021/04/27 00:04:44;;;;;;;15.43;8.85;;;;;;;12.12;33.44;100486.94;5051231;28;20041;-70
2021/04/27 00:07:12;;;;;;;19.08;8.95;;;;;;;11.89;34.24;100483.56;5052073;28;20064;-75
2021/04/27 00:09:39;;;;;;;19.23;8.60;;;;;;;12.15;34.20;100480.78;5052428;28;20057;-72
2021/04/27 00:12:06;;;;;;;16.35;8.73;;;;;;;11.89;34.87;100480.81;5052958;28;20049;-75
2021/04/27 00:14:34;;;;;;;16.25;8.48;;;;;;;11.89;34.05;100478.06;5035055;28;20052;-73
2021/04/27 00:17:02;;;;;;;17.27;8.88;;;;;;;11.64;34.64;100478.06;5052410;28;20053;-71
2021/04/27 00:19:29;;;;;;;15.43;8.68;;;;;;;11.87;34.73;100485.06;5035148;28;20049;-70
2021/04/27 00:21:56;;;;;;;13.57;8.38;;;;;;;11.79;34.78;100474.84;5052643;28;20049;-70
2021/04/27 00:24:24;;;;;;;13.00;8.43;;;;;;;11.46;34.94;100484.72;5052393;28;20489;-72
2021/04/27 00:26:51;;;;;;;17.95;8.52;;;;;;;11.20;35.93;100470.94;5052318;28;20052;-71
2021/04/27 00:29:18;;;;;;;13.40;8.65;;;;;;;10.97;35.94;100474.97;5051412;28;20056;-70
2021/04/27 00:31:45;;;;;;;14.18;7.93;;;;;;;11.08;36.42;100474.34;5051914;28;20057;-71
2021/04/27 00:34:12;;;;;;;20.88;9.55;;;;;;;11.03;36.42;100479.19;5052055;28;20056;-69
2021/04/27 00:41:03;;;;;;;14.15;8.85;;;;;;;10.83;37.06;100477.03;5052596;28;20481;-71
2021/04/27 00:43:30;;;;;;;13.63;8.98;;;;;;;10.91;38.93;100476.25;5033781;28;20045;-71
2021/04/27 00:45:58;;;;;;;18.23;9.80;;;;;;;10.79;37.09;100467.81;5051759;28;20076;-70
2021/04/27 00:48:24;;;;;;;18.15;9.15;;;;;;;10.94;37.60;100464.59;5051674;28;20049;-71
2021/04/27 00:50:51;;;;;;;16.08;9.23;;;;;;;11.06;38.53;100467.53;5051209;28;20136;-71
2021/04/27 00:53:18;;;;;;;15.77;9.18;;;;;;;11.25;36.85;100465.25;5051757;28;20041;-71
2021/04/27 00:55:46;;;;;;;16.00;9.05;;;;;;;10.95;37.61;100458.75;5051825;28;20049;-71
2021/04/27 00:58:13;;;;;;;17.42;9.18;;;;;;;11.10;37.73;100455.53;5034100;28;20049;-71
2021/04/27 01:00:41;;;;;;;15.07;9.77;;;;;;;11.20;37.43;100465.44;5033387;28;20377;-71
2021/04/27 01:03:08;;;;;;;19.65;8.52;;;;;;;11.03;37.75;100463.47;5051936;28;20053;-69
2021/04/27 01:05:37;;;;;;;18.25;9.18;;;;;;;10.83;39.67;100463.25;5033690;28;20045;-71
2021/04/27 01:08:27;;;;;;;15.90;8.53;;;;;;;11.38;40.34;100458.78;5049900;28;20053;-70
2021/04/27 01:11:17;;;;;;;14.57;9.35;;;;;;;10.93;39.63;100458.25;5050618;28;20045;-72
2021/04/27 01:13:56;;;;;;;20.88;9.20;;;;;;;11.03;39.46;100457.97;5033418;28;20161;-70
2021/04/27 01:16:24;;;;;;;17.27;9.20;;;;;;;10.53;40.97;100453.94;5049531;28;20064;-70
2021/04/27 01:18:53;;;;;;;17.55;10.07;;;;;;;10.35;40.50;100459.72;5033379;28;20045;-70
2021/04/27 01:21:22;;;;;;;19.95;10.48;;;;;;;9.94;42.26;100459.97;5050308;28;20047;-70
2021/04/27 01:24:08;;;;;;;22.38;9.90;;;;;;;10.09;42.00;100463.16;5032971;28;20056;-73
2021/04/27 01:26:39;;;;;;;20.77;9.70;;;;;;;10.11;42.40;100460.91;5016888;28;20059;-72
2021/04/27 01:29:08;;;;;;;15.45;9.77;;;;;;;9.81;42.95;100460.88;4984576;28;20053;-72
2021/04/27 01:31:36;;;;;;;16.65;9.38;;;;;;;9.67;43.92;100466.47;5033431;28;20049;-71
2021/04/27 01:34:04;;;;;;;18.25;10.30;;;;;;;9.61;44.53;100475.97;5017925;28;20072;-71
2021/04/27 01:36:34;;;;;;;17.40;10.63;;;;;;;9.63;44.70;100464.63;5033417;28;20059;-71
2021/04/27 01:39:06;;;;;;;21.23;10.25;;;;;;;9.69;45.21;100460.66;5051294;28;20492;-71
2021/04/27 01:41:35;;;;;;;18.58;9.98;;;;;;;9.68;45.57;100470.81;5051436;28;20052;-71
2021/04/27 01:44:04;;;;;;;23.35;10.40;;;;;;;9.93;45.75;100464.69;5017442;28;20338;-71
2021/04/27 01:46:32;;;;;;;24.93;11.70;;;;;;;10.02;46.87;100460.03;5033550;28;20400;-72
2021/04/27 01:48:59;;;;;;;20.67;10.27;;;;;;;10.35;44.74;100457.78;5033631;28;20296;-72
2021/04/27 01:51:29;;;;;;;18.63;10.82;;;;;;;10.10;45.84;100463.97;5017010;28;20060;-70
2021/04/27 01:54:40;;;;;;;20.17;10.50;;;;;;;10.14;46.08;100440.22;4990158;28;20057;-70
2021/04/27 01:57:07;;;;;;;22.27;11.55;;;;;;;9.51;47.78;100450.66;4990016;28;20549;-72
2021/04/27 01:59:35;;;;;;;15.65;10.65;;;;;;;9.34;49.28;100447.78;4992341;28;20058;-70
2021/04/27 02:02:07;;;;;;;23.77;11.60;;;;;;;9.32;49.05;100444.53;4993563;28;20198;-71
2021/04/27 02:04:35;;;;;;;22.02;11.82;;;;;;;9.68;49.61;100431.50;4993311;28;20051;-72
2021/04/27 02:07:40;;;;;;;25.02;11.18;;;;;;;10.39;47.56;100431.22;4936206;29;20487;-70
2021/04/27 02:10:11;;;;;;;26.42;11.25;;;;;;;10.72;47.35;100423.41;4937251;29;20055;-71
2021/04/27 02:12:40;;;;;;;20.42;11.85;;;;;;;10.46;47.19;100430.78;4937377;29;20063;-71
2021/04/27 02:15:10;;;;;;;16.75;11.02;;;;;;;10.30;47.32;100419.41;4921659;29;20070;-69
2021/04/27 02:17:41;;;;;;;24.50;12.00;;;;;;;10.46;47.48;100428.03;4922981;29;20408;-71
2021/04/27 02:20:10;;;;;;;19.33;11.95;;;;;;;10.92;46.98;100434.59;4936352;29;20298;-70
2021/04/27 02:23:06;;;;;;;20.23;12.32;;;;;;;9.92;47.63;100434.75;4860813;29;20046;-71
2021/04/27 02:25:53;;;;;;;25.27;12.43;;;;;;;9.57;49.64;100450.19;4842919;29;20049;-69
2021/04/27 02:28:22;;;;;;;22.00;11.60;;;;;;;9.26;49.82;100443.81;4829798;29;20057;-71
2021/04/27 02:30:50;;;;;;;25.85;12.70;;;;;;;9.34;49.54;100440.34;4860905;29;20069;-72
2021/04/27 02:33:18;;;;;;;23.90;12.25;;;;;;;9.46;49.68;100443.34;4860630;29;20053;-70
2021/04/27 02:40:26;;;;;;;22.35;13.20;;;;;;;9.23;50.26;100436.22;4916586;28;20056;-71
2021/04/27 02:42:56;;;;;;;21.65;12.25;;;;;;;9.46;50.83;100439.78;4915861;29;20048;-70
2021/04/27 02:45:31;;;;;;;23.60;13.20;;;;;;;9.43;49.77;100438.44;4901607;28;20178;-70
2021/04/27 02:48:21;;;;;;;50.00;12.30;;;;;;;9.21;50.34;100437.63;4916271;29;20060;-69
2021/04/27 02:55:21;;;;;;;26.23;12.75;;;;;;;9.72;50.28;100427.84;4917317;29;20071;-70
2021/04/27 02:57:48;;;;;;;26.52;12.93;;;;;;;9.71;49.52;100423.44;4900417;29;20063;-69
2021/04/27 03:00:16;;;;;;;21.42;13.63;;;;;;;9.81;50.56;100419.63;4987716;28;20060;-70
2021/04/27 03:02:52;;;;;;;27.38;13.65;;;;;;;9.87;49.29;100419.16;5032674;28;20057;-69
2021/04/27 03:05:20;;;;;;;26.80;13.80;;;;;;;9.72;49.78;100407.75;5034918;28;20052;-72
2021/04/27 03:12:19;;;;;;;29.10;14.98;;;;;;;8.97;52.20;100422.28;5016614;28;20209;-71
2021/04/27 03:14:46;;;;;;;32.50;14.80;;;;;;;9.07;52.04;100424.78;5016425;28;20045;-70
2021/04/27 03:17:17;;;;;;;22.92;14.05;;;;;;;9.16;51.91;100413.03;5016863;28;20056;-70
2021/04/27 03:19:51;;;;;;;24.80;14.55;;;;;;;8.76;52.47;100412.88;5016303;28;20053;-71
2021/04/27 03:26:51;;;;;;;23.95;14.48;;;;;;;8.97;51.87;100404.97;5033386;28;20384;-69
2021/04/27 03:29:27;;;;;;;27.38;15.57;;;;;;;8.81;54.16;100396.28;5015497;28;20053;-70
2021/04/27 03:32:01;;;;;;;26.58;14.27;;;;;;;9.72;53.17;100386.59;5016883;28;20060;-70
2021/04/27 03:34:28;;;;;;;30.77;14.90;;;;;;;10.34;50.88;100378.28;5015409;28;20049;-70
2021/04/27 03:37:01;;;;;;;30.50;15.00;;;;;;;9.63;51.58;100387.66;5015163;28;20045;-71
2021/04/27 03:39:28;;;;;;;31.55;14.80;;;;;;;9.15;51.47;100393.00;5016062;28;20052;-72
2021/04/27 03:41:57;;;;;;;25.17;14.88;;;;;;;9.02;51.93;100391.94;5015745;28;20045;-71
2021/04/27 03:44:24;;;;;;;31.52;17.50;;;;;;;8.80;51.95;100394.63;5015108;28;20405;-70
2021/04/27 03:46:51;;;;;;;29.50;16.00;;;;;;;8.76;52.58;100387.31;5015112;28;20401;-71
2021/04/27 03:49:19;;;;;;;21.13;14.00;;;;;;;8.74;52.43;100398.63;4999435;28;20390;-70
2021/04/27 03:51:48;;;;;;;24.23;15.32;;;;;;;8.50;52.69;100391.75;4998795;28;20046;-71
2021/04/27 03:54:17;;;;;;;29.63;14.90;;;;;;;8.61;52.44;100387.69;5032899;28;20049;-71
2021/04/27 03:56:44;;;;;;;24.25;14.10;;;;;;;8.57;53.25;100398.47;5016228;28;20068;-71
2021/04/27 03:59:13;;;;;;;29.85;14.77;;;;;;;8.90;52.78;100393.59;5016380;28;20112;-71
2021/04/27 04:01:42;;;;;;;26.15;15.10;;;;;;;9.18;51.54;100400.63;5031218;28;20064;-70
2021/04/27 04:04:09;;;;;;;29.50;15.65;;;;;;;9.04;52.90;100400.69;5015264;28;20060;-70
2021/04/27 04:06:38;;;;;;;26.17;14.77;;;;;;;9.80;50.16;100391.31;5014643;28;20049;-71
2021/04/27 04:09:34;;;;;;;25.13;14.98;;;;;;;9.15;51.13;100397.69;4991369;28;20054;-69
2021/04/27 04:12:10;;;;;;;28.25;15.70;;;;;;;9.14;51.04;100396.84;5009002;28;20058;-70
2021/04/27 04:14:36;;;;;;;27.35;14.93;;;;;;;9.66;51.15;100387.03;5010808;28;20498;-70
2021/04/27 04:17:09;;;;;;;30.98;15.35;;;;;;;8.92;51.14;100397.66;4994610;28;20157;-71
2021/04/27 04:19:37;;;;;;;26.02;15.43;;;;;;;8.90;51.92;100397.16;5010464;28;20402;-71
2021/04/27 04:22:07;;;;;;;27.20;14.77;;;;;;;8.79;51.78;100394.94;4976733;28;20545;-72
2021/04/27 04:24:41;;;;;;;24.60;14.98;;;;;;;8.65;52.98;100396.91;4994110;28;20425;-70
2021/04/27 04:27:08;;;;;;;24.80;14.82;;;;;;;9.02;51.73;100386.44;4993675;28;20437;-70
2021/04/27 04:29:42;;;;;;;27.85;15.90;;;;;;;9.28;51.84;100381.13;5010015;28;20073;-70
2021/04/27 04:32:28;;;;;;;28.67;15.68;;;;;;;9.51;51.82;100382.72;5010381;28;20478;-71
2021/04/27 04:35:16;;;;;;;24.33;15.02;;;;;;;10.19;50.81;100376.78;5011086;28;20426;-70
2021/04/27 04:38:03;;;;;;;28.35;14.70;;;;;;;10.81;48.87;100389.19;4996524;28;20149;-70
2021/04/27 04:40:49;;;;;;;25.65;15.40;;;;;;;10.53;48.68;100378.81;5010460;28;20061;-69
2021/04/27 04:43:34;;;;;;;26.60;15.57;;;;;;;9.91;52.71;100394.59;5010589;28;20054;-69
2021/04/27 04:46:20;;;;;;;29.88;15.40;;;;;;;9.83;48.88;100389.88;5020867;28;20057;-72
2021/04/27 04:49:06;;;;;;;23.35;14.75;;;;;;;10.07;50.13;100391.13;5051704;28;20484;-70
2021/04/27 04:56:02;;;;;;;25.73;15.57;;;;;;;9.71;51.54;100395.94;5010249;28;20056;-73
2021/04/27 04:58:33;;;;;;;27.88;16.40;;;;;;;9.56;51.71;100398.28;5009375;28;20054;-71
2021/04/27 05:01:04;;;;;;;34.50;15.98;;;;;;;10.07;50.33;100395.81;5009806;28;20053;-71
2021/04/27 05:03:47;;;;;;;26.05;15.98;;;;;;;9.35;50.41;100405.41;5010105;28;20069;-70
2021/04/27 05:06:44;;;;;;;26.75;15.52;;;;;;;9.09;50.32;100413.47;4997436;28;20066;-69
2021/04/27 05:09:40;;;;;;;27.48;16.00;;;;;;;8.95;51.40;100412.69;4935283;29;20059;-70
2021/04/27 05:12:12;;;;;;;30.20;17.08;;;;;;;8.80;52.20;100405.59;4920168;29;20052;-71
2021/04/27 05:14:41;;;;;;;24.90;16.00;;;;;;;8.89;51.52;100408.47;4951795;29;20079;-70
2021/04/27 05:17:11;;;;;;;29.05;16.33;;;;;;;8.84;51.15;100414.88;4951290;29;20066;-70
2021/04/27 05:19:39;;;;;;;25.77;15.82;;;;;;;9.51;52.19;100407.47;4951646;29;20062;-70
2021/04/27 05:22:09;;;;;;;26.70;15.95;;;;;;;9.09;50.68;100407.97;4951340;29;20055;-70
2021/04/27 05:24:37;;;;;;;31.35;16.52;;;;;;;8.59;51.84;100414.63;4952381;29;20055;-72
2021/04/27 05:27:11;;;;;;;28.58;15.98;;;;;;;8.47;52.47;100415.13;4938540;29;20051;-73
2021/04/27 05:29:38;;;;;;;31.35;15.80;;;;;;;9.25;52.60;100420.22;4953178;29;20051;-73
2021/04/27 05:32:06;;;;;;;34.83;16.58;;;;;;;8.82;51.67;100422.59;4936297;29;20058;-74
2021/04/27 05:34:34;;;;;;;32.58;17.33;;;;;;;8.59;51.83;100425.59;4934996;29;20054;-73
2021/04/27 05:37:02;;;;;;;31.50;17.38;;;;;;;8.34;52.48;100418.72;4951629;29;20054;-72
2021/04/27 05:39:30;;;;;;;33.20;17.77;;;;;;;8.32;52.53;100426.44;4951784;29;20066;-74
2021/04/27 05:42:03;;;;;;;32.25;17.27;;;;;;;8.05;53.38;100429.16;4936542;29;20047;-73
2021/04/27 05:44:31;;;;;;;31.70;17.75;;;;;;;8.00;54.09;100423.75;4951878;28;20051;-71
2021/04/27 05:46:58;;;;;;;31.95;18.55;;;;;;;8.27;53.94;100425.72;5018546;28;20056;-74
2021/04/27 05:49:28;;;;;;;29.58;18.67;;;;;;;8.07;54.05;100424.19;5050516;28;20075;-70
2021/04/27 05:51:55;;;;;;;29.05;16.33;;;;;;;8.88;52.79;100423.28;5051496;28;20045;-73
2021/04/27 05:54:23;;;;;;;26.20;16.17;;;;;;;9.24;51.52;100424.09;5051405;28;20045;-69
2021/04/27 05:56:50;;;;;;;27.10;17.23;;;;;;;8.80;51.49;100419.34;5051622;28;20400;-71
2021/04/27 05:59:17;;;;;;;31.08;17.50;;;;;;;8.65;51.39;100424.34;5032613;28;20057;-72
2021/04/27 06:01:44;;;;;;;35.30;17.88;;;;;;;8.86;51.21;100415.38;5050998;28;20053;-72
2021/04/27 06:04:11;;;;;;;35.33;18.17;;;;;;;9.64;51.99;100412.06;5050820;28;20052;-74
2021/04/27 06:06:37;;;;;;;27.05;17.73;;;;;;;9.68;50.05;100415.00;5050887;28;20057;-71
2021/04/27 06:09:06;;;;;;;30.10;16.88;;;;;;;10.04;49.08;100415.69;5050465;28;20059;-73
2021/04/27 06:11:37;;;;;;;26.55;17.17;;;;;;;9.44;49.29;100406.28;5016909;28;20084;-70
2021/04/27 06:14:07;;;;;;;34.40;18.73;;;;;;;9.71;50.64;100406.16;5049001;28;20041;-71
2021/04/27 06:16:35;;;;;;;28.40;17.55;;;;;;;9.04;49.56;100416.34;5033564;28;20044;-69
2021/04/27 06:19:06;;;;;;;30.27;17.63;;;;;;;8.96;51.06;100412.38;5032905;28;20053;-71
2021/04/27 06:21:33;;;;;;;27.92;17.27;;;;;;;8.28;51.79;100408.94;5050575;28;20124;-69
2021/04/27 06:24:00;;;;;;;32.10;17.17;;;;;;;8.92;53.16;100411.41;5051156;28;20071;-72
2021/04/27 06:26:27;;;;;;;31.23;17.08;;;;;;;9.19;50.85;100406.94;5033058;28;20512;-71
2021/04/27 06:28:54;;;;;;;28.40;17.65;;;;;;;9.16;49.65;100405.59;5049561;28;20064;-71
2021/04/27 06:31:21;;;;;;;31.67;16.52;;;;;;;9.42;50.84;100403.03;5033236;28;20049;-69
2021/04/27 06:33:48;;;;;;;28.65;16.27;;;;;;;9.63;49.36;100399.47;5050675;28;20052;-70
2021/04/27 06:36:15;;;;;;;31.98;18.15;;;;;;;9.12;50.25;100409.31;5033156;28;20048;-71
2021/04/27 06:38:43;;;;;;;26.92;16.25;;;;;;;9.15;51.11;100403.19;5033298;28;20044;-70
2021/04/27 06:41:12;;;;;;;34.78;17.08;;;;;;;9.73;50.25;100403.88;5033181;28;20496;-70
2021/04/27 06:43:39;;;;;;;32.88;17.05;;;;;;;10.09;48.55;100402.63;5050636;28;20057;-71
2021/04/27 06:46:06;;;;;;;31.58;17.38;;;;;;;10.60;52.97;100393.69;5034826;28;20053;-72
2021/04/27 06:48:34;;;;;;;29.02;17.77;;;;;;;10.99;57.96;100401.03;5036662;28;20064;-70
2021/04/27 06:51:03;;;;;;;30.35;16.42;;;;;;;10.13;48.22;100387.09;5053935;28;20041;-72
2021/04/27 06:53:31;;;;;;;36.28;17.73;;;;;;;10.18;52.45;100399.94;5053860;28;20048;-71
2021/04/27 06:55:58;;;;;;;32.75;17.33;;;;;;;10.40;58.04;100394.31;5035674;28;20060;-70
2021/04/27 06:58:26;;;;;;;32.03;18.85;;;;;;;10.52;54.57;100396.44;5020075;28;20416;-71
2021/04/27 07:00:53;;;;;;;31.60;17.73;;;;;;;10.37;53.11;100396.91;5054043;28;20044;-72
2021/04/27 07:03:27;;;;;;;31.70;17.88;;;;;;;10.99;54.71;100401.88;5054676;28;20053;-72
2021/04/27 07:05:57;;;;;;;35.72;16.13;;;;;;;11.10;56.39;100396.84;5038047;28;20045;-74
2021/04/27 07:08:24;;;;;;;27.13;16.38;;;;;;;11.36;51.52;100392.13;5037697;28;20052;-71
2021/04/27 07:10:57;;;;;;;30.52;15.45;;;;;;;11.71;52.01;100392.91;5051768;28;20060;-70
2021/04/27 07:13:26;;;;;;;;;;;;;;;11.34;49.31;100391.63;5036014;28;20480;-72
2021/04/27 07:15:53;;;;;;;31.05;17.58;;;;;;;11.06;48.66;100387.59;5054313;28;20470;-73
2021/04/27 07:18:20;;;;;;;30.52;16.95;;;;;;;11.69;52.10;100386.88;5054053;28;20052;-72
2021/04/27 07:20:48;;;;;;;28.98;15.93;;;;;;;12.24;49.95;100393.16;5053421;28;20063;-72
2021/04/27 07:23:15;;;;;;;32.60;16.85;;;;;;;12.66;47.28;100385.81;5051943;28;20049;-71
2021/04/27 07:30:09;;;;;;;27.23;15.77;;;;;;;11.38;48.22;100389.03;5052460;28;20060;-75
2021/04/27 07:32:36;;;;;;;30.03;16.17;;;;;;;10.49;47.13;100386.09;5035253;28;20144;-68
2021/04/27 07:35:05;;;;;;;27.50;15.93;;;;;;;10.93;47.60;100383.84;5052666;28;20045;-72
2021/04/27 07:37:32;;;;;;;33.92;16.58;;;;;;;11.14;45.59;100381.28;5052904;28;20069;-70
2021/04/27 07:39:59;;;;;;;24.35;15.52;;;;;;;10.84;47.88;100382.25;5034493;28;20500;-70
2021/04/27 07:42:27;;;;;;;36.08;16.90;;;;;;;10.63;44.38;100384.81;5052682;28;20129;-76
2021/04/27 07:44:54;;;;;;;28.90;15.70;;;;;;;10.04;44.70;100377.97;5036067;28;20064;-76
2021/04/27 07:47:21;;;;;;;33.53;17.70;;;;;;;9.96;45.52;100377.94;5052849;28;20060;-74
2021/04/27 07:49:49;;;;;;;31.42;15.80;;;;;;;10.22;45.17;100369.81;5034358;28;20049;-72
2021/04/27 07:52:16;;;;;;;25.73;16.38;;;;;;;10.31;44.51;100363.19;5053241;28;20045;-73
2021/04/27 07:54:43;;;;;;;31.42;16.13;;;;;;;10.66;44.22;100367.66;5052775;28;20053;-72
2021/04/27 07:57:09;;;;;;;29.17;15.18;;;;;;;10.99;43.21;100373.50;5053604;28;20060;-75
2021/04/27 07:59:36;;;;;;;32.60;14.95;;;;;;;11.49;42.60;100360.00;5054540;28;20049;-73
2021/04/27 08:02:03;;;;;;;28.55;15.65;;;;;;;11.89;40.70;100364.91;5052998;28;20049;-75
2021/04/27 08:04:30;;;;;;;24.35;14.63;;;;;;;12.12;39.94;100363.50;5052930;28;20048;-73
2021/04/27 08:06:57;;;;;;;24.45;15.02;;;;;;;11.55;40.33;100367.75;5034843;28;20049;-73
2021/04/27 08:09:25;;;;;;;25.58;15.07;;;;;;;11.91;42.81;100367.31;5052771;28;20507;-76
2021/04/27 08:11:53;;;;;;;24.50;14.38;;;;;;;12.33;39.70;100363.56;5052398;28;20084;-72
2021/04/27 08:14:21;;;;;;;27.25;13.93;;;;;;;11.92;39.40;100358.75;5037400;28;20060;-81
2021/04/27 08:16:50;;;;;;;27.42;13.73;;;;;;;11.92;39.15;100361.50;5037994;28;20048;-75
2021/04/27 08:19:17;;;;;;;21.23;13.90;;;;;;;11.37;39.64;100357.88;5053317;28;20522;-75
2021/04/27 08:21:45;;;;;;;23.90;13.40;;;;;;;11.07;40.28;100358.91;5056286;28;20053;-73
2021/04/27 08:24:12;;;;;;;27.45;14.65;;;;;;;11.06;40.88;100357.28;5036817;28;20047;-75
2021/04/27 08:26:59;;;;;;;27.60;13.75;;;;;;;11.61;40.30;100354.59;5054371;28;20037;-75
2021/04/27 08:29:27;;;;;;;28.98;13.60;;;;;;;12.03;39.51;100348.16;5054779;28;20060;-76
2021/04/27 08:31:57;;;;;;;20.77;13.40;;;;;;;12.06;40.67;100345.53;5053321;28;20053;-76
2021/04/27 08:34:26;;;;;;;33.95;14.38;;;;;;;11.80;39.19;100349.53;5036225;28;20051;-74
2021/04/27 08:36:54;;;;;;;30.20;14.13;;;;;;;11.64;38.98;100345.66;5039055;28;20058;-76
2021/04/27 08:39:30;;;;;;;30.08;14.50;;;;;;;11.49;38.93;100341.47;5036259;28;20435;-74
2021/04/27 08:41:58;;;;;;;26.75;13.57;;;;;;;11.43;39.49;100337.28;5053088;28;20053;-75
2021/04/27 08:44:25;;;;;;;24.35;13.07;;;;;;;11.76;38.71;100340.28;5052459;28;20045;-75
2021/04/27 08:46:52;;;;;;;26.13;14.15;;;;;;;11.47;39.34;100334.69;5052609;28;20045;-76
2021/04/27 08:49:19;;;;;;;19.55;11.80;;;;;;;12.09;44.36;100333.81;5040937;28;20052;-76
2021/04/27 08:51:46;;;;;;;24.40;13.55;;;;;;;12.89;39.07;100334.56;5017820;28;20064;-77
2021/04/27 08:58:59;;;;;;;26.05;14.55;;;;;;;12.32;39.53;100329.63;5052458;28;20051;-74
2021/04/27 09:01:27;;;;;;;21.98;12.30;;;;;;;12.70;40.11;100331.47;5033382;28;20049;-75
2021/04/27 09:03:59;;;;;;;25.58;12.45;;;;;;;12.91;35.96;100335.03;5049670;28;20480;-76
2021/04/27 09:06:26;;;;;;;22.15;13.38;;;;;;;12.91;35.80;100327.56;5035669;28;20045;-77
2021/04/27 09:08:54;;;;;;;22.73;13.43;;;;;;;12.90;36.06;100336.19;5032356;28;20064;-79
2021/04/27 09:15:56;;;;;;;23.35;13.95;;;;;;;13.14;38.25;100328.03;5015598;28;20049;-79
2021/04/27 09:18:31;;;;;;;27.40;14.07;;;;;;;13.25;35.64;100327.25;5032958;28;20049;-77
2021/04/27 09:21:06;;;;;;;28.45;14.25;;;;;;;13.14;36.33;100323.31;5014214;28;20049;-76
2021/04/27 09:23:35;;;;;;;32.00;12.85;;;;;;;12.99;35.83;100323.13;4997881;28;20413;-76
2021/04/27 09:30:31;;;;;;;27.75;14.35;;;;;;;13.06;36.70;100315.91;5032160;28;20041;-76
2021/04/27 09:33:00;;;;;;;24.27;13.00;;;;;;;13.40;35.34;100309.22;5031534;28;20155;-73
2021/04/27 09:35:57;;;;;;;24.38;13.35;;;;;;;13.37;34.28;100302.41;5014257;28;20050;-78
2021/04/27 09:38:31;;;;;;;25.98;13.35;;;;;;;13.41;34.26;100297.81;5032178;28;20471;-74
2021/04/27 09:41:04;;;;;;;24.25;13.85;;;;;;;13.63;34.87;100301.31;5013341;28;20053;-74
2021/04/27 09:43:42;;;;;;;22.30;12.70;;;;;;;13.31;33.85;100303.78;5012956;28;20053;-75
2021/04/27 09:46:15;;;;;;;27.60;11.90;;;;;;;13.24;32.99;100288.88;5013562;28;20049;-75
2021/04/27 09:48:51;;;;;;;24.55;11.32;;;;;;;13.62;32.88;100291.38;5030322;28;20512;-76
2021/04/27 09:51:35;;;;;;;24.10;11.93;;;;;;;13.88;34.54;100286.34;4998308;28;20064;-80
2021/04/27 09:54:11;;;;;;;26.65;11.07;;;;;;;14.44;34.33;100279.84;5031118;28;20057;-77
2021/04/27 09:56:43;;;;;;;28.27;12.55;;;;;;;14.52;32.52;100274.16;5030988;28;20045;-74
2021/04/27 09:59:13;;;;;;;34.10;12.18;;;;;;;14.25;31.27;100274.09;5030778;28;20057;-73
2021/04/27 10:01:40;;;;;;;26.50;12.40;;;;;;;14.46;31.12;100275.59;5029963;28;20508;-73
2021/04/27 10:04:08;;;;;;;21.17;11.43;;;;;;;14.31;30.75;100267.19;5031602;28;20049;-74
2021/04/27 10:06:35;;;;;;;21.63;10.85;;;;;;;14.37;30.38;100277.69;4997044;28;20369;-73
2021/04/27 10:09:04;;;;;;;18.45;11.25;;;;;;;14.30;30.33;100262.78;4996496;28;20050;-74
2021/04/27 10:11:31;;;;;;;17.98;10.23;;;;;;;14.43;32.73;100261.63;4995788;28;20061;-73
2021/04/27 10:13:59;;;;;;;18.70;11.02;;;;;;;14.57;30.34;100256.50;5035113;28;20052;-73
2021/04/27 10:16:26;;;;;;;23.33;11.35;;;;;;;14.65;30.17;100259.13;5031715;28;20048;-77
2021/04/27 10:19:00;;;;;;;20.17;10.18;;;;;;;14.55;29.05;100256.06;5033386;28;20056;-73
2021/04/27 10:21:29;;;;;;;18.90;10.98;;;;;;;14.78;29.48;100259.09;5053092;28;20045;-74
2021/04/27 10:24:15;;;;;;;21.00;11.32;;;;;;;14.68;29.58;100252.88;5052955;28;20060;-75
2021/04/27 10:26:47;;;;;;;19.45;11.48;;;;;;;14.39;29.46;100250.44;5035810;28;20048;-76
2021/04/27 10:29:25;;;;;;;18.35;10.70;;;;;;;14.66;30.11;100246.88;5018766;28;20057;-75
2021/04/27 10:32:17;;;;;;;20.73;10.48;;;;;;;15.17;30.58;100241.56;5053354;28;20056;-73
2021/04/27 10:34:57;;;;;;;14.52;8.90;;;;;;;14.83;27.15;100244.97;5053902;28;20400;-74
2021/04/27 10:37:29;;;;;;;16.80;8.38;;;;;;;15.09;27.47;100239.75;5055829;28;20057;-77
2021/04/27 10:39:56;;;;;;;16.60;8.90;;;;;;;15.01;27.08;100227.66;5054204;28;20049;-74
2021/04/27 10:42:34;;;;;;;19.40;9.38;;;;;;;15.04;27.66;100226.97;5035943;28;20049;-74
2021/04/27 10:45:06;;;;;;;19.20;9.18;;;;;;;15.02;28.42;100222.94;5052195;28;20510;-72
2021/04/27 10:47:42;;;;;;;20.80;10.23;;;;;;;15.11;28.64;100218.84;5052216;28;20060;-73
2021/04/27 10:50:25;;;;;;;15.25;9.30;;;;;;;14.88;27.56;100220.56;5019392;28;20052;-72
2021/04/27 10:53:31;;;;;;;16.27;8.68;;;;;;;15.15;27.20;100219.72;5034480;28;20045;-69
2021/04/27 11:00:01;;;;;;;13.10;8.13;;;;;;;15.22;26.24;100213.56;5051508;28;20053;-70
2021/04/27 11:02:30;;;;;;;15.63;8.15;;;;;;;15.32;26.32;100213.84;5051496;28;20060;-74
2021/04/27 11:05:34;;;;;;;11.55;7.47;;;;;;;15.39;25.55;100213.22;5052391;28;20045;-71
2021/04/27 11:08:13;;;;;;;12.07;6.75;;;;;;;15.58;25.66;100197.50;4990117;28;20095;-75
2021/04/27 11:10:44;;;;;;;16.33;6.85;;;;;;;15.63;25.27;100200.00;4990012;28;20070;-73
2021/04/27 11:13:13;;;;;;;12.00;6.90;;;;;;;15.54;24.83;100193.81;4990017;28;20050;-73
2021/04/27 11:15:42;;;;;;;13.75;7.22;;;;;;;15.58;24.82;100194.72;4971644;28;20053;-71
2021/04/27 11:18:19;;;;;;;11.73;6.97;;;;;;;15.68;25.17;100196.13;4970635;28;20047;-71
2021/04/27 11:20:56;;;;;;;14.07;6.70;;;;;;;15.68;25.24;100194.16;4953938;28;20062;-69
2021/04/27 11:23:35;;;;;;;13.98;6.85;;;;;;;15.85;25.44;100198.53;4969650;28;20055;-71
2021/04/27 11:30:17;;;;;;;13.60;6.97;;;;;;;15.87;24.61;100192.59;4951737;29;20051;-74
2021/04/27 11:32:46;;;;;;;12.52;7.38;;;;;;;15.79;25.49;100178.53;4949826;29;20051;-76
2021/04/27 11:35:20;;;;;;;13.40;7.72;;;;;;;15.68;24.84;100194.16;4951366;29;20055;-74
2021/04/27 11:37:55;;;;;;;20.80;8.18;;;;;;;15.69;24.53;100187.44;4951106;29;20271;-75
2021/04/27 11:40:28;;;;;;;13.07;6.93;;;;;;;16.07;24.11;100174.81;4951313;29;20054;-75
2021/04/27 11:43:15;;;;;;;13.02;7.47;;;;;;;16.17;25.50;100171.47;4942226;28;20057;-72
2021/04/27 11:45:51;;;;;;;13.52;7.25;;;;;;;16.14;24.69;100169.44;4990212;28;20050;-74
2021/04/27 11:48:22;;;;;;;15.05;7.28;;;;;;;16.54;28.78;100164.38;4989309;28;20058;-73
2021/04/27 11:50:52;;;;;;;13.60;8.07;;;;;;;16.61;24.46;100153.38;4989997;28;20097;-70
2021/04/27 11:53:26;;;;;;;20.27;8.52;;;;;;;16.65;26.05;100154.22;4989440;28;20186;-72
2021/04/27 11:55:58;;;;;;;13.98;7.60;;;;;;;16.33;24.49;100152.78;4990743;28;20509;-72
2021/04/27 11:58:32;;;;;;;19.27;8.07;;;;;;;16.32;24.34;100156.72;4972911;28;20058;-73
2021/04/27 12:01:02;;;;;;;13.38;8.43;;;;;;;16.25;24.30;100145.47;5012468;28;20499;-71
2021/04/27 12:03:55;;;;;;;12.05;7.43;;;;;;;16.51;24.29;100140.06;5014315;28;20045;-71
2021/04/27 12:06:22;;;;;;;12.80;8.18;;;;;;;16.63;23.08;100140.69;4997923;28;20389;-73
2021/04/27 12:08:53;;;;;;;16.20;7.78;;;;;;;16.45;23.04;100133.16;5032153;28;20056;-74
2021/04/27 12:11:32;;;;;;;19.63;7.63;;;;;;;16.67;23.21;100126.88;5032604;28;20057;-72
2021/04/27 12:14:10;;;;;;;11.65;7.25;;;;;;;17.01;22.86;100127.91;5036689;28;20053;-72
2021/04/27 12:16:38;;;;;;;9.60;6.75;;;;;;;17.13;22.82;100122.16;5051360;28;20500;-72
2021/04/27 12:19:15;;;;;;;12.45;7.07;;;;;;;17.19;22.33;100131.81;5052027;28;20045;-72
2021/04/27 12:22:02;;;;;;;16.30;7.15;;;;;;;16.86;22.79;100132.38;5050520;28;20477;-73
2021/04/27 12:24:35;;;;;;;17.77;7.88;;;;;;;16.99;27.48;100119.94;5051572;28;20056;-71
2021/04/27 12:31:29;;;;;;;12.25;7.78;;;;;;;16.76;22.65;100116.31;5050313;28;20052;-70
2021/04/27 12:33:58;;;;;;;12.57;7.68;;;;;;;16.84;22.39;100120.84;5051150;28;20407;-71